createdAt,value
2023-03-07T00:00:59.347Z,20.5
2023-03-07T00:06:36.174Z,20.5
2023-03-07T00:17:51.806Z,20.4
2023-03-07T00:23:28.376Z,20.4
2023-03-07T00:29:22.265Z,20.4
2023-03-07T00:34:59.055Z,20.4
2023-03-07T00:40:50.752Z,20.4
2023-03-07T00:46:28.271Z,20.4
2023-03-07T00:52:05.252Z,20.4
2023-03-07T00:57:42.553Z,20.4
2023-03-07T01:03:03.907Z,20.3
2023-03-07T01:08:42.212Z,20.3
2023-03-07T01:14:19.019Z,20.3
2023-03-07T01:19:56.485Z,20.3
2023-03-07T01:25:34.044Z,20.3
2023-03-07T01:31:10.801Z,20.3
2023-03-07T01:37:04.193Z,20.3
2023-03-07T01:42:57.080Z,20.3
2023-03-07T01:48:49.402Z,20.3
2023-03-07T01:59:33.257Z,20.2
2023-03-07T02:05:25.792Z,20.2
2023-03-07T02:11:17.158Z,20.3
2023-03-07T02:16:54.669Z,20.3
2023-03-07T02:22:46.526Z,20.4
2023-03-07T02:28:24.257Z,20.6
2023-03-07T02:34:16.762Z,20.9
2023-03-07T02:39:53.598Z,21.3
2023-03-07T02:45:45.401Z,21.7
2023-03-07T02:51:22.374Z,22.1
2023-03-07T02:56:44.075Z,22.6
2023-03-07T03:07:59.453Z,23.6
2023-03-07T03:13:53.296Z,24.3
2023-03-07T03:19:46.288Z,24.9
2023-03-07T03:25:40.243Z,25.6
2023-03-07T03:31:32.392Z,26.3
2023-03-07T03:37:25.432Z,26.8
2023-03-07T03:43:18.524Z,27.2
2023-03-07T03:49:11.809Z,27.4
2023-03-07T03:55:04.239Z,27.5
2023-03-07T04:00:56.733Z,27.6
2023-03-07T04:06:49.517Z,27.7
2023-03-07T04:12:41.876Z,27.7
2023-03-07T04:18:35.715Z,27.8
2023-03-07T04:30:05.116Z,27.8
2023-03-07T04:35:43.168Z,27.8
2023-03-07T04:41:35.057Z,27.8
2023-03-07T04:47:00.124Z,27.8
2023-03-07T04:52:22.463Z,27.8
2023-03-07T05:03:39.176Z,27.8
2023-03-07T05:09:34.493Z,27.8
2023-03-07T05:15:26.486Z,27.8
2023-03-07T05:21:19.070Z,27.8
2023-03-07T05:27:11.840Z,27.8
2023-03-07T05:33:03.873Z,27.8
2023-03-07T05:44:34.280Z,27.8
2023-03-07T05:56:04.610Z,27.9
2023-03-07T06:01:58.352Z,27.9
2023-03-07T06:07:53.853Z,27.9
2023-03-07T06:13:47.250Z,27.9
2023-03-07T06:19:40.683Z,27.9
2023-03-07T06:25:18.380Z,27.9
2023-03-07T06:31:11.858Z,27.9
2023-03-07T06:48:23.459Z,27.8
2023-03-07T06:54:29.409Z,27.8
2023-03-07T07:00:23.804Z,27.7
2023-03-07T07:06:16.521Z,27.7
2023-03-07T07:12:08.823Z,27.7
2023-03-07T07:17:29.552Z,27.7
2023-03-07T07:23:06.987Z,27.6
2023-03-07T07:28:59.988Z,27.6
2023-03-07T07:34:53.560Z,27.6
2023-03-07T07:40:46.220Z,27.6
2023-03-07T07:46:38.846Z,27.6
2023-03-07T07:52:31.134Z,27.6
2023-03-07T07:58:23.337Z,27.5
2023-03-07T08:04:20.261Z,27.5
2023-03-07T08:10:12.847Z,27.5
2023-03-07T08:16:08.377Z,27.5
2023-03-07T08:22:01.844Z,27.4
2023-03-07T08:28:04.846Z,27.4
2023-03-07T08:33:58.492Z,27.3
2023-03-07T08:39:36.429Z,27.3
2023-03-07T08:45:29.140Z,27.3
2023-03-07T08:51:23.030Z,27.3
2023-03-07T08:57:16.665Z,27.3
2023-03-07T09:03:09.843Z,27.3
2023-03-07T09:09:02.767Z,27.3
2023-03-07T09:15:05.110Z,27.3
2023-03-07T09:20:59.789Z,27.3
2023-03-07T09:26:52.511Z,27.3
2023-03-07T09:32:45.467Z,77.2
2023-03-07T09:38:21.619Z,62.8
2023-03-07T09:44:17.732Z,54.8
2023-03-07T09:50:10.804Z,50
2023-03-07T09:55:58.229Z,75.5
2023-03-07T10:02:06.927Z,62
2023-03-07T10:08:02.357Z,54.6
2023-03-07T10:13:55.423Z,50.1
2023-03-07T10:19:34.552Z,46.9
2023-03-07T10:25:12.600Z,44.1
2023-03-07T10:31:04.793Z,46.6
2023-03-07T10:37:24.585Z,71.1
2023-03-07T10:43:17.925Z,59.6
2023-03-07T10:49:43.258Z,53.8
2023-03-07T10:55:22.167Z,49.2
2023-03-07T11:01:17.056Z,79.2
2023-03-07T11:07:17.947Z,64.4
2023-03-07T11:12:55.234Z,57.1
2023-03-07T11:18:42.253Z,52.6
2023-03-07T11:24:18.532Z,49.2
2023-03-07T11:30:12.049Z,82.9
2023-03-07T11:36:04.503Z,67.2
2023-03-07T11:41:56.117Z,59
2023-03-07T11:47:34.567Z,54.2
2023-03-07T11:53:28.410Z,50.5
2023-03-07T11:59:20.829Z,47.3
2023-03-07T12:10:50.823Z,42.6
2023-03-07T12:16:44.449Z,40.9
2023-03-07T12:22:36.482Z,39.6
2023-03-07T12:28:16.321Z,38.6
2023-03-07T12:34:10.613Z,37.8
2023-03-07T12:40:04.587Z,37.2
2023-03-07T12:45:27.378Z,36.8
2023-03-07T12:51:12.290Z,36.4
2023-03-07T12:56:49.252Z,36.1
2023-03-07T13:02:27.679Z,35.9
2023-03-07T13:08:20.334Z,35.8
2023-03-07T13:14:14.846Z,35.6
2023-03-07T13:20:08.096Z,35.5
2023-03-07T13:26:00.722Z,35.4
2023-03-07T13:31:38.597Z,35.3
2023-03-07T13:37:31.651Z,35.1
2023-03-07T13:43:09.799Z,35.1
2023-03-07T13:49:04.103Z,34.9
2023-03-07T13:54:57.003Z,34.9
2023-03-07T14:00:52.472Z,34.7
2023-03-07T14:06:52.147Z,34.6
2023-03-07T14:12:51.444Z,34.4
2023-03-07T14:18:45.004Z,34.3
2023-03-07T14:24:38.139Z,34.2
2023-03-07T14:30:31.687Z,34.1
2023-03-07T14:36:10.190Z,33.9
2023-03-07T14:42:05.027Z,33.8
2023-03-07T14:47:58.589Z,33.8
2023-03-07T14:54:00.289Z,33.7
2023-03-07T15:00:02.016Z,33.6
2023-03-07T15:05:56.349Z,33.4
2023-03-07T15:11:49.574Z,33.3
2023-03-07T15:17:44.452Z,33.1
2023-03-07T15:23:07.005Z,33
2023-03-07T15:28:59.549Z,32.9
2023-03-07T15:34:36.802Z,32.8
2023-03-07T15:40:30.149Z,32.8
2023-03-07T15:45:52.222Z,32.7
2023-03-07T15:51:45.624Z,32.6
2023-03-07T15:57:38.063Z,32.5
2023-03-07T16:03:15.462Z,32.4
2023-03-07T16:08:37.938Z,32.4
2023-03-07T16:13:59.754Z,32.4
2023-03-07T16:19:51.903Z,32.3
2023-03-07T16:25:30.587Z,32.3
2023-03-07T16:31:23.896Z,32.2
2023-03-07T16:42:23.230Z,32.1
2023-03-07T16:48:16.861Z,32.1
2023-03-07T16:54:17.938Z,32
2023-03-07T16:59:55.150Z,31.9
2023-03-07T17:05:34.368Z,31.9
2023-03-07T17:11:34.290Z,31.9
2023-03-07T17:17:26.943Z,31.8
2023-03-07T17:23:19.639Z,31.8
2023-03-07T17:29:13.040Z,31.8
2023-03-07T17:35:05.989Z,31.7
2023-03-07T17:40:59.556Z,31.6
2023-03-07T17:46:51.577Z,31.6
2023-03-07T17:52:45.044Z,31.6
2023-03-07T17:58:38.301Z,31.5
2023-03-07T18:04:34.248Z,31.5
2023-03-07T18:10:40.183Z,31.4
2023-03-07T18:22:29.145Z,31.4
2023-03-07T18:27:53.308Z,31.3
2023-03-07T18:33:46.781Z,31.3
2023-03-07T18:39:40.589Z,31.3
2023-03-07T18:45:33.483Z,31.2
2023-03-07T18:51:26.527Z,31.1
2023-03-07T18:57:20.097Z,31.1
2023-03-07T19:02:57.673Z,31.1
2023-03-07T19:08:35.551Z,31.1
2023-03-07T19:14:31.144Z,31
2023-03-07T19:20:08.306Z,30.9
2023-03-07T19:26:00.672Z,30.9
2023-03-07T19:31:37.907Z,30.9
2023-03-07T19:37:16.783Z,30.8
2023-03-07T19:43:09.268Z,30.8
2023-03-07T19:49:02.487Z,30.7
2023-03-07T19:54:54.683Z,30.6
2023-03-07T20:00:47.717Z,30.6
2023-03-07T20:06:40.337Z,30.4
2023-03-07T20:12:49.735Z,30.4
2023-03-07T20:18:42.884Z,30.4
2023-03-07T20:30:13.169Z,30.4
2023-03-07T20:36:07.308Z,30.4
2023-03-07T20:42:00.857Z,30.4
2023-03-07T20:47:54.584Z,30.3
2023-03-07T20:53:48.160Z,30.6
2023-03-07T20:59:41.442Z,31.1
2023-03-07T21:05:33.987Z,31.8
2023-03-07T21:16:36.373Z,32.8
2023-03-07T21:22:13.854Z,33.1
2023-03-07T21:27:36.373Z,33.3
2023-03-07T21:33:13.520Z,33.3
2023-03-07T21:44:27.342Z,33.4
2023-03-07T21:50:20.312Z,33.4
2023-03-07T21:56:11.912Z,33.3
2023-03-07T22:02:05.105Z,33.3
2023-03-07T22:07:41.740Z,33.3
2023-03-07T22:13:18.784Z,33.3
2023-03-07T22:18:41.192Z,33.3
2023-03-07T22:24:34.096Z,33.3
2023-03-07T22:29:56.094Z,33.3
2023-03-07T22:35:18.582Z,33.3
2023-03-07T22:46:17.115Z,33.3
2023-03-07T22:51:38.619Z,33.3
2023-03-07T22:57:15.727Z,33.2
2023-03-07T23:03:08.732Z,33.2
2023-03-07T23:08:46.879Z,33.2
2023-03-07T23:14:39.902Z,33.1
2023-03-07T23:25:59.311Z,33.1
2023-03-07T23:31:51.834Z,33.1
2023-03-07T23:37:45.356Z,33.1
2023-03-07T23:43:39.158Z,33.1
2023-03-07T23:49:19.371Z,33
2023-03-07T23:54:41.379Z,33
